Time;durP1;ratioP1;P1;durP2;ratioP2;P2;SDS_P1;SDS_P2;PMS_P1;PMS_P2;Temp;Humidity;BMP_temperature;BMP_pressure;BME280_temperature;BME280_humidity;BME280_pressure;Samples;Min_cycle;Max_cycle;Signal;HPM_P1;HPM_P2
2022/06/08 00:00:00;;;;;;;8.65;3.85;;;;;;;;;;5055240;28;20057;-67
2022/06/08 00:02:30;;;;;;;8.27;3.67;;;;;;;;;;5055096;28;20028;-66
2022/06/08 00:04:55;;;;;;;5.97;3.83;;;;;;;;;;5055217;28;20025;-66
2022/06/08 00:07:21;;;;;;;13.13;3.78;;;;;;;;;;5054925;28;20050;-67
2022/06/08 00:09:46;;;;;;;6.72;4.18;;;;;;;;;;5055026;28;20029;-66
2022/06/08 00:12:12;;;;;;;7.28;4.07;;;;;;;;;;5055111;28;20028;-66
2022/06/08 00:14:38;;;;;;;6.28;4.10;;;;;;;;;;5054809;28;20044;-66
2022/06/08 00:17:04;;;;;;;7.13;3.83;;;;;;;;;;5054925;28;20417;-67
2022/06/08 00:19:30;;;;;;;6.35;3.95;;;;;;;;;;5054333;28;20485;-67
2022/06/08 00:21:56;;;;;;;8.68;4.18;;;;;;;;;;5054576;28;20036;-67
2022/06/08 00:24:22;;;;;;;9.43;3.90;;;;;;;;;;5054657;28;20506;-67
2022/06/08 00:26:47;;;;;;;6.07;3.83;;;;;;;;;;5054823;28;20108;-67
2022/06/08 00:29:13;;;;;;;5.78;3.92;;;;;;;;;;5054585;28;20032;-66
2022/06/08 00:31:38;;;;;;;8.50;4.30;;;;;;;;;;5054706;28;20048;-66
2022/06/08 00:34:04;;;;;;;6.88;4.20;;;;;;;;;;5054517;28;20037;-67
2022/06/08 00:36:29;;;;;;;5.35;4.00;;;;;;;;;;5054366;28;20021;-66
2022/06/08 00:38:55;;;;;;;6.40;4.30;;;;;;;;;;5054601;28;20028;-66
2022/06/08 00:41:39;;;;;;;6.47;4.70;;;;;;;;;;5054469;28;20111;-66
2022/06/08 00:44:10;;;;;;;7.07;4.30;;;;;;;;;;5054386;28;20467;-67
2022/06/08 00:46:37;;;;;;;6.28;4.35;;;;;;;;;;5053062;28;20136;-66
2022/06/08 00:49:16;;;;;;;6.85;4.47;;;;;;;;;;5054346;28;20332;-66
2022/06/08 00:51:42;;;;;;;6.32;4.60;;;;;;;;;;5054320;28;20029;-67
2022/06/08 00:54:12;;;;;;;6.45;4.53;;;;;;;;;;5054310;28;20086;-66
2022/06/08 00:56:44;;;;;;;6.85;4.88;;;;;;;;;;5054175;28;20053;-67
2022/06/08 00:59:10;;;;;;;7.95;4.90;;;;;;;;;;5054044;28;20037;-67
2022/06/08 01:01:36;;;;;;;7.45;5.22;;;;;;;;;;5054094;28;20024;-66
2022/06/08 01:04:09;;;;;;;7.80;5.53;;;;;;;;;;5053803;28;20064;-66
2022/06/08 01:06:35;;;;;;;8.73;5.60;;;;;;;;;;5054072;28;20478;-66
2022/06/08 01:09:02;;;;;;;7.75;5.22;;;;;;;;;;5053909;28;20032;-66
2022/06/08 01:11:39;;;;;;;10.45;5.53;;;;;;;;;;5053893;28;20025;-67
2022/06/08 01:14:10;;;;;;;10.10;5.45;;;;;;;;;;5053814;28;20075;-66
2022/06/08 01:16:37;;;;;;;8.60;5.25;;;;;;;;;;5053707;28;20025;-66
2022/06/08 01:19:04;;;;;;;9.77;5.75;;;;;;;;;;5053244;28;20480;-66
2022/06/08 01:21:30;;;;;;;9.00;5.07;;;;;;;;;;5053653;28;20082;-66
2022/06/08 01:24:00;;;;;;;7.18;5.07;;;;;;;;;;5053484;28;20036;-67
2022/06/08 01:26:40;;;;;;;;;;;;;;;;;;5054099;28;20028;-67
2022/06/08 01:29:11;;;;;;;10.32;4.88;;;;;;;;;;5053515;28;19999;-67
2022/06/08 01:31:42;;;;;;;8.77;5.60;;;;;;;;;;5052971;28;20021;-67
2022/06/08 01:34:30;;;;;;;8.07;5.50;;;;;;;;;;5053268;28;20031;-66
2022/06/08 01:37:01;;;;;;;5.45;4.32;;;;;;;;;;5053483;28;20443;-67
2022/06/08 01:39:35;;;;;;;9.70;5.28;;;;;;;;;;5053376;28;20433;-66
2022/06/08 01:42:12;;;;;;;6.82;4.95;;;;;;;;;;5053415;28;20546;-67
2022/06/08 01:45:29;;;;;;;11.60;5.40;;;;;;;;;;5053285;28;20044;-66
2022/06/08 01:48:01;;;;;;;7.35;5.07;;;;;;;;;;5053009;28;20017;-66
2022/06/08 01:50:32;;;;;;;9.48;5.32;;;;;;;;;;5053155;28;20168;-66
2022/06/08 01:53:22;;;;;;;7.78;5.97;;;;;;;;;;5053113;28;20025;-66
2022/06/08 01:55:48;;;;;;;7.85;5.40;;;;;;;;;;5053084;28;20032;-66
2022/06/08 01:58:28;;;;;;;8.02;5.22;;;;;;;;;;5053127;28;20029;-66
2022/06/08 02:01:02;;;;;;;6.97;5.55;;;;;;;;;;5053136;28;20061;-66
2022/06/08 02:03:41;;;;;;;8.75;5.65;;;;;;;;;;5052832;28;20040;-66
2022/06/08 02:06:23;;;;;;;7.22;5.00;;;;;;;;;;5053073;28;20074;-67
2022/06/08 02:09:17;;;;;;;10.05;5.38;;;;;;;;;;5052875;28;20440;-67
2022/06/08 02:12:08;;;;;;;6.88;5.40;;;;;;;;;;5052930;28;20104;-66
2022/06/08 02:14:42;;;;;;;6.95;5.20;;;;;;;;;;5052829;28;20537;-66
2022/06/08 02:17:29;;;;;;;8.70;4.22;;;;;;;;;;5052587;28;20037;-67
2022/06/08 02:20:19;;;;;;;7.18;4.68;;;;;;;;;;5047769;28;20462;-67
2022/06/08 02:22:55;;;;;;;7.95;4.40;;;;;;;;;;5052541;28;20056;-66
2022/06/08 02:25:33;;;;;;;5.93;3.80;;;;;;;;;;5052713;28;20498;-67
2022/06/08 02:28:08;;;;;;;6.82;4.15;;;;;;;;;;5052651;28;20390;-67
2022/06/08 02:30:39;;;;;;;9.35;3.97;;;;;;;;;;5052669;28;20060;-67
2022/06/08 02:36:13;;;;;;;5.65;3.50;;;;;;;;;;5052640;28;20082;-67
2022/06/08 02:38:44;;;;;;;5.95;4.05;;;;;;;;;;5052577;28;20545;-67
2022/06/08 02:41:11;;;;;;;7.55;3.65;;;;;;;;;;5051471;28;20363;-66
2022/06/08 02:43:39;;;;;;;7.28;3.80;;;;;;;;;;5056650;28;20021;-67
2022/06/08 02:46:20;;;;;;;11.05;4.43;;;;;;;;;;5056494;28;20032;-67
2022/06/08 02:48:46;;;;;;;5.75;4.32;;;;;;;;;;5056582;28;20052;-67
2022/06/08 02:51:12;;;;;;;6.53;4.30;;;;;;;;;;5056416;28;20057;-67
2022/06/08 02:54:03;;;;;;;8.60;4.30;;;;;;;;;;5056521;28;20461;-67
2022/06/08 02:56:52;;;;;;;7.88;4.18;;;;;;;;;;5056116;28;20083;-67
2022/06/08 02:59:32;;;;;;;12.38;5.15;;;;;;;;;;5056377;28;20032;-66
2022/06/08 03:02:19;;;;;;;12.00;4.50;;;;;;;;;;5056183;28;20029;-67
2022/06/08 03:04:53;;;;;;;6.00;3.92;;;;;;;;;;5056305;28;20033;-67
2022/06/08 03:07:25;;;;;;;9.07;4.30;;;;;;;;;;5056330;28;20532;-67
2022/06/08 03:09:52;;;;;;;5.63;3.75;;;;;;;;;;5056350;28;20025;-67
2022/06/08 03:12:27;;;;;;;6.63;3.88;;;;;;;;;;5056181;28;20078;-67
2022/06/08 03:14:53;;;;;;;6.53;4.15;;;;;;;;;;5055992;28;20114;-67
2022/06/08 03:17:25;;;;;;;8.27;4.00;;;;;;;;;;5055866;28;20433;-67
2022/06/08 03:19:50;;;;;;;7.07;4.25;;;;;;;;;;5055856;28;20029;-67
2022/06/08 03:22:16;;;;;;;10.07;4.88;;;;;;;;;;5056035;28;20078;-67
2022/06/08 03:24:43;;;;;;;8.45;4.78;;;;;;;;;;5054564;28;20048;-67
2022/06/08 03:27:09;;;;;;;6.40;4.78;;;;;;;;;;5055751;28;20025;-67
2022/06/08 03:29:35;;;;;;;8.30;4.78;;;;;;;;;;5055651;28;20032;-67
2022/06/08 03:32:01;;;;;;;7.05;4.75;;;;;;;;;;5055823;28;20029;-67
2022/06/08 03:34:26;;;;;;;6.30;4.55;;;;;;;;;;5055657;28;20029;-66
2022/06/08 03:36:52;;;;;;;8.60;4.40;;;;;;;;;;5055756;28;20501;-66
2022/06/08 03:39:18;;;;;;;9.63;4.10;;;;;;;;;;5055464;28;20585;-66
2022/06/08 03:41:44;;;;;;;5.43;3.83;;;;;;;;;;5055610;28;20028;-66
2022/06/08 03:44:09;;;;;;;8.25;4.10;;;;;;;;;;5055421;28;20335;-66
2022/06/08 03:46:39;;;;;;;6.13;3.75;;;;;;;;;;5055631;28;20036;-66
2022/06/08 03:49:07;;;;;;;4.78;3.60;;;;;;;;;;5055322;28;20434;-66
2022/06/08 03:51:34;;;;;;;7.80;3.85;;;;;;;;;;5055410;28;20031;-66
2022/06/08 03:54:07;;;;;;;6.28;3.95;;;;;;;;;;5054573;28;20036;-66
2022/06/08 03:56:34;;;;;;;7.03;3.38;;;;;;;;;;5055318;28;20048;-66
2022/06/08 03:59:00;;;;;;;7.80;3.10;;;;;;;;;;5055072;28;20107;-67
2022/06/08 04:01:26;;;;;;;6.82;3.28;;;;;;;;;;5055282;28;20067;-67
2022/06/08 04:03:52;;;;;;;5.97;2.67;;;;;;;;;;5055134;28;20029;-66
2022/06/08 04:06:21;;;;;;;5.05;2.95;;;;;;;;;;5054980;28;20033;-66
2022/06/08 04:08:47;;;;;;;5.30;3.00;;;;;;;;;;5054938;28;20040;-67
2022/06/08 04:11:12;;;;;;;4.25;2.65;;;;;;;;;;5054962;28;20021;-67
2022/06/08 04:13:38;;;;;;;6.38;3.05;;;;;;;;;;5054602;28;20025;-67
2022/06/08 04:16:04;;;;;;;6.50;3.00;;;;;;;;;;5054937;28;20074;-67
2022/06/08 04:18:30;;;;;;;5.93;2.78;;;;;;;;;;5054672;28;20021;-67
2022/06/08 04:20:59;;;;;;;3.88;2.70;;;;;;;;;;5054783;28;20491;-66
2022/06/08 04:23:27;;;;;;;5.65;2.55;;;;;;;;;;5054557;28;20036;-67
2022/06/08 04:25:54;;;;;;;9.15;2.95;;;;;;;;;;5054795;28;20104;-67
2022/06/08 04:28:21;;;;;;;6.43;3.00;;;;;;;;;;5054439;28;20432;-67
2022/06/08 04:30:47;;;;;;;3.92;3.03;;;;;;;;;;5054676;28;20021;-66
2022/06/08 04:33:13;;;;;;;4.10;2.65;;;;;;;;;;5054462;28;20040;-67
2022/06/08 04:35:39;;;;;;;6.55;3.00;;;;;;;;;;5054446;28;20032;-67
2022/06/08 04:38:06;;;;;;;7.03;3.20;;;;;;;;;;5054596;28;20025;-67
2022/06/08 04:40:32;;;;;;;9.48;3.90;;;;;;;;;;5054342;28;20039;-67
2022/06/08 04:42:57;;;;;;;7.75;3.95;;;;;;;;;;5054235;28;20478;-67
2022/06/08 04:45:24;;;;;;;7.20;3.90;;;;;;;;;;5054253;28;20478;-67
2022/06/08 04:47:49;;;;;;;5.30;3.88;;;;;;;;;;5054353;28;20040;-67
2022/06/08 04:50:15;;;;;;;7.63;4.50;;;;;;;;;;5054193;28;20382;-67
2022/06/08 04:52:41;;;;;;;7.75;4.50;;;;;;;;;;5054216;28;20139;-66
2022/06/08 04:55:09;;;;;;;8.18;4.13;;;;;;;;;;5054167;28;20540;-66
2022/06/08 04:57:37;;;;;;;7.20;4.50;;;;;;;;;;5053872;28;20498;-67
2022/06/08 05:00:06;;;;;;;9.52;5.03;;;;;;;;;;5054067;28;20061;-67
2022/06/08 05:02:50;;;;;;;9.95;5.22;;;;;;;;;;5053986;28;20057;-67
2022/06/08 05:05:26;;;;;;;7.55;4.50;;;;;;;;;;5052877;28;20128;-67
2022/06/08 05:07:53;;;;;;;5.35;3.50;;;;;;;;;;5053937;28;20440;-67
2022/06/08 05:10:20;;;;;;;5.85;4.07;;;;;;;;;;5052482;28;20017;-66
2022/06/08 05:12:46;;;;;;;13.52;4.55;;;;;;;;;;5053571;28;20108;-67
2022/06/08 05:15:15;;;;;;;7.00;4.10;;;;;;;;;;5053698;28;20029;-67
2022/06/08 05:17:41;;;;;;;6.90;4.45;;;;;;;;;;5053581;28;20028;-67
2022/06/08 05:20:08;;;;;;;8.13;4.03;;;;;;;;;;5053462;28;20082;-67
2022/06/08 05:22:36;;;;;;;6.25;4.00;;;;;;;;;;5053394;28;20029;-67
2022/06/08 05:25:03;;;;;;;8.20;4.95;;;;;;;;;;5053119;28;20084;-67
2022/06/08 05:27:29;;;;;;;9.50;4.20;;;;;;;;;;5053361;28;20033;-67
2022/06/08 05:29:54;;;;;;;5.75;3.30;;;;;;;;;;5053392;28;20027;-67
2022/06/08 05:32:20;;;;;;;6.47;3.20;;;;;;;;;;5053455;28;20025;-67
2022/06/08 05:34:45;;;;;;;6.95;3.17;;;;;;;;;;5053449;28;20064;-67
2022/06/08 05:37:11;;;;;;;5.90;2.90;;;;;;;;;;5053341;28;20501;-67
2022/06/08 05:39:36;;;;;;;5.05;2.65;;;;;;;;;;5053109;28;20025;-67
2022/06/08 05:42:03;;;;;;;8.35;2.85;;;;;;;;;;5053294;28;20025;-67
2022/06/08 05:44:28;;;;;;;4.03;2.60;;;;;;;;;;5053202;28;20036;-66
2022/06/08 05:46:54;;;;;;;8.60;2.63;;;;;;;;;;5053020;28;20104;-66
2022/06/08 05:49:20;;;;;;;4.35;2.80;;;;;;;;;;5052849;28;20029;-66
2022/06/08 05:51:46;;;;;;;4.25;2.63;;;;;;;;;;5053203;28;20029;-66
2022/06/08 05:54:12;;;;;;;11.20;2.70;;;;;;;;;;5052856;28;20072;-66
2022/06/08 05:56:40;;;;;;;5.50;2.40;;;;;;;;;;5053069;28;20025;-66
2022/06/08 05:59:05;;;;;;;5.43;2.80;;;;;;;;;;5052846;28;20064;-66
2022/06/08 06:01:31;;;;;;;8.18;2.80;;;;;;;;;;5053147;28;20053;-66
2022/06/08 06:03:59;;;;;;;6.30;3.15;;;;;;;;;;5053046;28;20040;-66
2022/06/08 06:06:25;;;;;;;5.05;3.15;;;;;;;;;;5052855;28;20048;-66
2022/06/08 06:08:50;;;;;;;5.72;2.85;;;;;;;;;;5052738;28;20048;-66
2022/06/08 06:11:16;;;;;;;5.18;2.90;;;;;;;;;;5052860;28;20413;-66
2022/06/08 06:13:42;;;;;;;8.75;2.85;;;;;;;;;;5052786;28;20033;-66
2022/06/08 06:16:09;;;;;;;7.18;2.70;;;;;;;;;;5052548;28;20021;-66
2022/06/08 06:18:35;;;;;;;4.70;2.30;;;;;;;;;;5052193;28;20021;-66
2022/06/08 06:21:01;;;;;;;3.28;2.40;;;;;;;;;;5052783;28;20024;-66
2022/06/08 06:23:27;;;;;;;4.47;2.20;;;;;;;;;;5052310;28;20455;-66
2022/06/08 06:25:53;;;;;;;4.10;2.85;;;;;;;;;;5052803;28;20475;-66
2022/06/08 06:28:19;;;;;;;4.00;2.42;;;;;;;;;;5052520;28;20035;-66
2022/06/08 06:30:44;;;;;;;3.55;2.40;;;;;;;;;;5052709;28;20421;-66
2022/06/08 06:33:11;;;;;;;5.57;2.25;;;;;;;;;;5052497;28;20109;-66
2022/06/08 06:35:37;;;;;;;6.60;3.08;;;;;;;;;;5052581;28;20044;-66
2022/06/08 06:38:03;;;;;;;6.50;2.30;;;;;;;;;;5052409;28;20477;-66
2022/06/08 06:40:29;;;;;;;5.65;2.53;;;;;;;;;;5052300;28;20111;-66
2022/06/08 06:42:55;;;;;;;5.40;2.33;;;;;;;;;;5052528;28;20064;-66
2022/06/08 06:45:20;;;;;;;8.55;3.13;;;;;;;;;;5052533;28;20081;-66
2022/06/08 06:47:46;;;;;;;2.97;2.17;;;;;;;;;;5052496;28;20029;-66
2022/06/08 06:50:13;;;;;;;4.72;2.80;;;;;;;;;;5052364;28;20035;-66
2022/06/08 06:52:39;;;;;;;4.18;2.40;;;;;;;;;;5051857;28;20032;-66
2022/06/08 06:55:05;;;;;;;4.45;2.58;;;;;;;;;;5052404;28;20355;-66
2022/06/08 06:57:30;;;;;;;5.25;2.30;;;;;;;;;;5052426;28;20379;-66
2022/06/08 06:59:56;;;;;;;3.28;2.20;;;;;;;;;;5052344;28;20036;-66
2022/06/08 07:02:22;;;;;;;4.05;2.10;;;;;;;;;;5052265;28;20490;-66
2022/06/08 07:04:49;;;;;;;4.78;2.20;;;;;;;;;;5052177;28;20029;-66
2022/06/08 07:07:16;;;;;;;8.18;2.28;;;;;;;;;;5051846;28;20036;-66
2022/06/08 07:09:42;;;;;;;6.25;2.10;;;;;;;;;;5052069;28;20098;-66
2022/06/08 07:12:10;;;;;;;6.32;2.40;;;;;;;;;;5051985;28;20025;-67
2022/06/08 07:14:36;;;;;;;4.57;2.33;;;;;;;;;;5052066;28;20039;-67
2022/06/08 07:17:01;;;;;;;4.38;2.30;;;;;;;;;;5052062;28;20119;-67
2022/06/08 07:19:27;;;;;;;5.07;2.38;;;;;;;;;;5051899;28;20482;-67
2022/06/08 07:21:53;;;;;;;5.10;2.10;;;;;;;;;;5051904;28;20029;-67
2022/06/08 07:24:22;;;;;;;5.55;2.00;;;;;;;;;;5052045;28;20106;-67
2022/06/08 07:26:49;;;;;;;6.67;2.43;;;;;;;;;;5052178;28;20068;-67
2022/06/08 07:29:15;;;;;;;5.00;2.38;;;;;;;;;;5053968;28;20025;-67
2022/06/08 07:31:41;;;;;;;3.78;2.30;;;;;;;;;;5047081;28;20025;-67
2022/06/08 07:34:08;;;;;;;3.15;2.10;;;;;;;;;;5055537;28;20382;-67
2022/06/08 07:36:33;;;;;;;4.25;1.80;;;;;;;;;;5055317;28;20490;-67
2022/06/08 07:38:59;;;;;;;8.50;2.42;;;;;;;;;;5055467;28;20031;-66
2022/06/08 07:41:25;;;;;;;4.65;2.28;;;;;;;;;;5055591;28;20031;-67
2022/06/08 07:43:51;;;;;;;4.28;1.98;;;;;;;;;;5054926;28;20025;-68
2022/06/08 07:46:19;;;;;;;4.75;2.10;;;;;;;;;;5055267;28;20021;-68
2022/06/08 07:51:28;;;;;;;6.82;2.08;;;;;;;;;;5055227;28;20125;-66
2022/06/08 07:53:54;;;;;;;4.35;2.30;;;;;;;;;;5054867;28;20518;-66
2022/06/08 07:56:19;;;;;;;6.78;2.50;;;;;;;;;;5055144;28;20079;-68
2022/06/08 07:58:45;;;;;;;4.20;2.60;;;;;;;;;;5054940;28;21179;-66
2022/06/08 08:01:10;;;;;;;6.45;2.03;;;;;;;;;;5055004;28;20390;-66
2022/06/08 08:03:37;;;;;;;8.00;2.10;;;;;;;;;;5054875;28;20398;-66
2022/06/08 08:06:03;;;;;;;6.10;1.90;;;;;;;;;;5054901;28;20017;-66
2022/06/08 08:08:28;;;;;;;5.50;2.10;;;;;;;;;;5054852;28;20462;-70
2022/06/08 08:10:54;;;;;;;35.28;2.60;;;;;;;;;;5054827;28;20025;-70
2022/06/08 08:13:19;;;;;;;6.25;2.22;;;;;;;;;;5053331;28;20097;-67
2022/06/08 08:15:45;;;;;;;6.95;2.35;;;;;;;;;;5054374;28;20444;-67
2022/06/08 08:18:12;;;;;;;9.68;2.30;;;;;;;;;;5054481;28;20406;-71
2022/06/08 08:20:38;;;;;;;12.85;2.33;;;;;;;;;;5053245;28;20368;-73
2022/06/08 08:23:04;;;;;;;10.60;2.60;;;;;;;;;;5065782;28;20052;-70
2022/06/08 08:25:30;;;;;;;7.22;2.15;;;;;;;;;;5053189;28;20041;-71
2022/06/08 08:27:57;;;;;;;8.10;2.17;;;;;;;;;;5052976;28;20082;-70
2022/06/08 08:30:26;;;;;;;10.80;2.13;;;;;;;;;;5052940;28;20036;-71
2022/06/08 08:32:52;;;;;;;8.40;2.10;;;;;;;;;;5053044;28;20017;-70
2022/06/08 08:35:18;;;;;;;21.05;3.72;;;;;;;;;;5052773;28;20021;-71
2022/06/08 08:37:45;;;;;;;6.25;2.05;;;;;;;;;;5052652;28;20055;-64
2022/06/08 08:40:38;;;;;;;2.70;1.83;;;;;;;;;;5052779;28;20021;-67
2022/06/08 08:43:09;;;;;;;3.40;1.60;;;;;;;;;;5050842;28;20417;-66
2022/06/08 08:45:45;;;;;;;7.85;2.03;;;;;;;;;;5052782;28;20497;-71
2022/06/08 08:48:24;;;;;;;7.22;2.42;;;;;;;;;;5052638;28;20025;-70
2022/06/08 08:50:54;;;;;;;7.80;2.15;;;;;;;;;;5051554;28;20029;-70
2022/06/08 08:53:24;;;;;;;7.25;1.92;;;;;;;;;;5049925;28;20036;-71
2022/06/08 08:56:09;;;;;;;4.03;1.85;;;;;;;;;;5052488;28;20020;-66
2022/06/08 08:58:37;;;;;;;6.65;2.17;;;;;;;;;;5052781;28;20024;-66
2022/06/08 09:01:23;;;;;;;5.13;2.08;;;;;;;;;;5053563;28;20051;-66
2022/06/08 09:04:13;;;;;;;12.48;2.20;;;;;;;;;;5051613;28;20419;-66
2022/06/08 09:06:39;;;;;;;4.63;2.13;;;;;;;;;;5053119;28;20047;-66
2022/06/08 09:09:12;;;;;;;4.63;1.85;;;;;;;;;;5053290;28;20021;-66
2022/06/08 09:11:41;;;;;;;4.88;1.92;;;;;;;;;;5052942;28;20013;-66
2022/06/08 09:14:09;;;;;;;5.57;1.95;;;;;;;;;;5053226;28;20476;-71
2022/06/08 09:16:42;;;;;;;8.23;1.88;;;;;;;;;;5053136;28;20025;-71
2022/06/08 09:19:50;;;;;;;4.03;1.75;;;;;;;;;;5046400;28;20384;-66
2022/06/08 09:22:29;;;;;;;3.83;1.73;;;;;;;;;;5031011;28;20467;-70
2022/06/08 09:25:22;;;;;;;5.78;1.88;;;;;;;;;;5031400;28;20079;-71
2022/06/08 09:27:50;;;;;;;4.57;1.80;;;;;;;;;;5031123;28;20045;-68
2022/06/08 09:30:24;;;;;;;4.10;1.90;;;;;;;;;;5032036;28;20156;-70
2022/06/08 09:32:51;;;;;;;5.32;2.00;;;;;;;;;;5027629;28;20083;-71
2022/06/08 09:35:20;;;;;;;2.70;2.00;;;;;;;;;;5027038;28;20109;-71
2022/06/08 09:37:48;;;;;;;5.47;1.90;;;;;;;;;;5024945;28;20067;-70
2022/06/08 09:40:36;;;;;;;7.53;2.17;;;;;;;;;;5026371;28;20068;-69
2022/06/08 09:43:43;;;;;;;3.58;2.10;;;;;;;;;;5030258;28;20028;-68
2022/06/08 09:46:16;;;;;;;5.85;1.90;;;;;;;;;;5031836;28;20033;-70
2022/06/08 09:51:48;;;;;;;3.88;1.80;;;;;;;;;;5027534;28;20109;-68
2022/06/08 09:54:19;;;;;;;2.60;1.80;;;;;;;;;;5062176;28;20032;-69
2022/06/08 09:56:54;;;;;;;4.75;1.70;;;;;;;;;;5055960;28;20056;-69
2022/06/08 09:59:28;;;;;;;8.07;1.83;;;;;;;;;;5065447;28;20016;-68
2022/06/08 10:01:54;;;;;;;6.05;1.77;;;;;;;;;;5062876;28;20025;-69
2022/06/08 10:04:38;;;;;;;5.55;1.83;;;;;;;;;;5041919;28;20025;-69
2022/06/08 10:07:15;;;;;;;5.30;1.80;;;;;;;;;;5042369;28;20104;-69
2022/06/08 10:09:55;;;;;;;3.92;1.80;;;;;;;;;;5062236;28;20017;-69
2022/06/08 10:12:36;;;;;;;3.50;1.83;;;;;;;;;;5048704;28;20395;-70
2022/06/08 10:15:04;;;;;;;4.95;2.20;;;;;;;;;;5040138;28;20029;-68
2022/06/08 10:17:40;;;;;;;5.95;2.05;;;;;;;;;;5063650;28;20429;-70
2022/06/08 10:20:17;;;;;;;2.95;1.70;;;;;;;;;;5064148;28;20040;-69
2022/06/08 10:23:25;;;;;;;3.33;1.65;;;;;;;;;;5055652;28;20367;-70
2022/06/08 10:25:58;;;;;;;3.67;1.90;;;;;;;;;;5059636;28;20037;-72
2022/06/08 10:28:24;;;;;;;3.70;1.88;;;;;;;;;;5068085;28;20034;-70
2022/06/08 10:31:21;;;;;;;4.72;1.80;;;;;;;;;;5054621;28;20099;-71
2022/06/08 10:34:02;;;;;;;5.05;2.00;;;;;;;;;;5059075;28;20081;-69
2022/06/08 10:36:31;;;;;;;3.97;1.98;;;;;;;;;;5068726;28;20166;-69
2022/06/08 10:38:59;;;;;;;4.28;2.10;;;;;;;;;;5040032;28;20082;-71
2022/06/08 10:44:32;;;;;;;2.65;1.90;;;;;;;;;;5067222;28;20043;-68
2022/06/08 10:47:14;;;;;;;3.25;1.90;;;;;;;;;;5040348;28;20016;-67
2022/06/08 10:49:40;;;;;;;4.50;2.13;;;;;;;;;;5061920;28;20509;-72
2022/06/08 10:52:45;;;;;;;5.72;2.00;;;;;;;;;;5065274;28;20063;-70
2022/06/08 10:55:14;;;;;;;8.13;2.00;;;;;;;;;;5043302;28;20439;-68
2022/06/08 10:57:44;;;;;;;3.90;2.00;;;;;;;;;;5062048;28;20467;-64
2022/06/08 11:00:22;;;;;;;3.67;2.00;;;;;;;;;;5065678;28;20123;-66
2022/06/08 11:03:02;;;;;;;3.83;1.90;;;;;;;;;;5056683;28;20035;-67
2022/06/08 11:05:30;;;;;;;5.30;2.10;;;;;;;;;;5065150;28;21476;-66
2022/06/08 11:07:58;;;;;;;3.58;2.50;;;;;;;;;;5057623;28;20033;-67
2022/06/08 11:10:49;;;;;;;3.08;1.70;;;;;;;;;;5071550;28;20025;-67
2022/06/08 11:13:21;;;;;;;4.45;1.88;;;;;;;;;;5066987;28;20537;-66
2022/06/08 11:16:01;;;;;;;3.85;1.60;;;;;;;;;;5059735;28;20075;-67
2022/06/08 11:18:32;;;;;;;2.63;1.88;;;;;;;;;;5046880;28;20029;-67
2022/06/08 11:21:13;;;;;;;4.75;1.73;;;;;;;;;;5064696;28;20051;-66
2022/06/08 11:23:54;;;;;;;8.23;1.80;;;;;;;;;;5060566;28;20126;-67
2022/06/08 11:26:25;;;;;;;5.25;1.42;;;;;;;;;;5043036;28;20012;-66
2022/06/08 11:29:23;;;;;;;3.47;1.50;;;;;;;;;;5067119;28;20025;-66
2022/06/08 11:31:54;;;;;;;2.60;1.60;;;;;;;;;;5062795;28;20535;-67
2022/06/08 11:34:20;;;;;;;1.80;1.20;;;;;;;;;;5058925;28;20024;-66
2022/06/08 11:37:22;;;;;;;4.00;1.50;;;;;;;;;;5067991;28;20025;-66
2022/06/08 11:40:10;;;;;;;4.43;1.55;;;;;;;;;;5070940;28;20103;-66
2022/06/08 11:43:08;;;;;;;2.65;1.50;;;;;;;;;;5046865;28;20177;-66
2022/06/08 11:45:47;;;;;;;2.47;1.40;;;;;;;;;;5061167;28;20489;-66
2022/06/08 11:48:20;;;;;;;4.40;1.70;;;;;;;;;;5071346;28;20535;-67
2022/06/08 11:50:58;;;;;;;5.05;1.80;;;;;;;;;;5062147;28;20032;-68
2022/06/08 11:53:40;;;;;;;2.85;1.67;;;;;;;;;;5062287;28;20025;-67
2022/06/08 11:56:29;;;;;;;3.97;1.60;;;;;;;;;;5071310;28;20474;-67
2022/06/08 11:58:59;;;;;;;2.08;1.40;;;;;;;;;;5063542;28;20039;-68
2022/06/08 12:01:52;;;;;;;6.75;1.75;;;;;;;;;;5062094;28;20021;-67
2022/06/08 12:04:29;;;;;;;4.55;1.70;;;;;;;;;;4996456;28;20034;-67
2022/06/08 12:06:58;;;;;;;4.95;1.80;;;;;;;;;;5012836;28;20030;-65
2022/06/08 12:09:37;;;;;;;2.55;1.50;;;;;;;;;;5012528;28;20120;-64
2022/06/08 12:12:13;;;;;;;3.45;1.50;;;;;;;;;;5012346;28;20040;-65
2022/06/08 12:14:40;;;;;;;2.58;1.65;;;;;;;;;;5011820;28;20474;-66
2022/06/08 12:17:31;;;;;;;2.00;1.40;;;;;;;;;;5012774;28;20026;-66
2022/06/08 12:19:58;;;;;;;4.20;1.75;;;;;;;;;;5009271;28;20034;-67
2022/06/08 12:22:33;;;;;;;6.35;2.42;;;;;;;;;;5012506;28;20048;-67
2022/06/08 12:25:14;;;;;;;7.07;2.40;;;;;;;;;;5007986;28;20532;-65
2022/06/08 12:27:49;;;;;;;13.43;3.55;;;;;;;;;;5010256;28;20124;-66
2022/06/08 12:30:29;;;;;;;7.18;2.30;;;;;;;;;;5009302;28;20117;-65
2022/06/08 12:32:58;;;;;;;14.82;4.30;;;;;;;;;;5011084;28;20058;-65
2022/06/08 12:35:27;;;;;;;2.65;1.48;;;;;;;;;;5010437;28;20509;-67
2022/06/08 12:38:13;;;;;;;8.35;1.73;;;;;;;;;;5008580;28;20399;-65
2022/06/08 12:40:40;;;;;;;2.08;1.40;;;;;;;;;;5025469;28;20135;-66
2022/06/08 12:43:12;;;;;;;4.07;1.55;;;;;;;;;;5054225;28;20033;-66
2022/06/08 12:45:41;;;;;;;9.20;2.58;;;;;;;;;;5054060;28;20047;-66
2022/06/08 12:48:28;;;;;;;2.75;1.73;;;;;;;;;;5053942;28;20025;-66
2022/06/08 12:50:56;;;;;;;4.50;1.30;;;;;;;;;;5053465;28;20394;-66
2022/06/08 12:53:22;;;;;;;2.22;1.25;;;;;;;;;;5053589;28;20360;-66
2022/06/08 12:55:49;;;;;;;2.75;1.48;;;;;;;;;;5053664;28;20021;-67
2022/06/08 12:58:15;;;;;;;3.10;1.52;;;;;;;;;;5053898;28;20028;-66
2022/06/08 13:00:48;;;;;;;2.70;1.50;;;;;;;;;;5053724;28;20025;-67
2022/06/08 13:03:24;;;;;;;2.10;1.33;;;;;;;;;;5053689;28;20096;-66
2022/06/08 13:05:51;;;;;;;2.85;1.15;;;;;;;;;;5053651;28;20040;-66
2022/06/08 13:08:21;;;;;;;3.80;1.40;;;;;;;;;;5053000;28;20079;-66
2022/06/08 13:10:52;;;;;;;1.50;1.10;;;;;;;;;;5053649;28;20060;-67
2022/06/08 13:13:21;;;;;;;3.28;1.98;;;;;;;;;;5053655;28;20036;-66
2022/06/08 13:15:47;;;;;;;3.88;1.55;;;;;;;;;;5053456;28;20461;-65
2022/06/08 13:18:28;;;;;;;2.13;1.30;;;;;;;;;;5046604;28;20116;-66
2022/06/08 13:20:56;;;;;;;3.50;1.38;;;;;;;;;;5053366;28;20021;-66
2022/06/08 13:23:22;;;;;;;2.92;1.60;;;;;;;;;;5052682;28;20497;-65
2022/06/08 13:25:51;;;;;;;5.75;1.40;;;;;;;;;;5051980;28;20504;-70
2022/06/08 13:28:26;;;;;;;3.33;1.80;;;;;;;;;;5052728;28;20067;-67
2022/06/08 13:30:54;;;;;;;2.85;1.70;;;;;;;;;;5050060;28;20039;-66
2022/06/08 13:36:22;;;;;;;2.70;1.30;;;;;;;;;;5052292;28;20031;-67
2022/06/08 13:38:51;;;;;;;6.85;1.63;;;;;;;;;;5052567;28;20118;-65
2022/06/08 13:41:17;;;;;;;2.28;1.30;;;;;;;;;;5052650;28;20035;-68
2022/06/08 13:43:44;;;;;;;5.90;1.77;;;;;;;;;;5052421;28;20461;-67
2022/06/08 13:46:21;;;;;;;3.17;1.10;;;;;;;;;;5052988;28;20458;-68
2022/06/08 13:48:48;;;;;;;5.40;1.70;;;;;;;;;;5053166;28;20112;-65
2022/06/08 13:51:14;;;;;;;3.25;1.23;;;;;;;;;;5053006;28;20046;-67
2022/06/08 13:53:40;;;;;;;2.50;1.13;;;;;;;;;;5052636;28;20025;-66
2022/06/08 13:56:06;;;;;;;3.35;1.10;;;;;;;;;;5052902;28;20029;-66
2022/06/08 13:58:32;;;;;;;4.00;1.35;;;;;;;;;;5052827;28;20033;-66
2022/06/08 14:01:02;;;;;;;5.30;1.20;;;;;;;;;;5052634;28;20075;-64
2022/06/08 14:03:36;;;;;;;6.18;1.45;;;;;;;;;;5052744;28;20036;-66
2022/06/08 14:14:22;;;;;;;;;;;;;;;;;;5053101;28;20098;-66
2022/06/08 14:16:52;;;;;;;1.88;1.45;;;;;;;;;;5052769;28;19952;-67
2022/06/08 14:19:35;;;;;;;;;;;;;;;;;;5052723;28;20363;-67
2022/06/08 14:22:04;;;;;;;2.13;1.50;;;;;;;;;;5052268;28;20047;-66
2022/06/08 14:24:34;;;;;;;3.42;1.40;;;;;;;;;;5052296;28;20041;-67
2022/06/08 14:27:00;;;;;;;3.15;1.20;;;;;;;;;;5052158;28;20059;-67
2022/06/08 14:29:26;;;;;;;2.13;1.20;;;;;;;;;;5051965;28;20032;-67
2022/06/08 14:31:56;;;;;;;1.70;1.20;;;;;;;;;;5051843;28;20029;-66
2022/06/08 14:34:26;;;;;;;3.40;1.30;;;;;;;;;;5052376;28;20079;-67
2022/06/08 14:36:54;;;;;;;3.05;1.10;;;;;;;;;;5052323;28;20117;-67
2022/06/08 14:39:23;;;;;;;5.78;1.65;;;;;;;;;;5058935;28;20075;-67
2022/06/08 14:41:50;;;;;;;2.27;1.20;;;;;;;;;;5058263;28;20041;-66
2022/06/08 14:44:20;;;;;;;2.40;1.30;;;;;;;;;;5059008;28;20029;-66
2022/06/08 14:46:48;;;;;;;2.37;1.30;;;;;;;;;;5057446;28;20557;-67
2022/06/08 14:49:18;;;;;;;4.18;1.60;;;;;;;;;;5058345;28;20025;-66
2022/06/08 14:51:43;;;;;;;2.22;1.50;;;;;;;;;;5056608;28;20052;-67
2022/06/08 14:54:20;;;;;;;4.70;1.38;;;;;;;;;;5056272;28;20471;-67
2022/06/08 14:56:48;;;;;;;4.28;1.30;;;;;;;;;;5057828;28;20035;-67
2022/06/08 14:59:18;;;;;;;2.47;1.50;;;;;;;;;;5057947;28;20028;-67
2022/06/08 15:01:46;;;;;;;7.00;3.63;;;;;;;;;;5059002;28;20021;-67
2022/06/08 15:04:15;;;;;;;4.13;2.20;;;;;;;;;;5057580;28;20031;-67
2022/06/08 15:06:45;;;;;;;3.90;1.27;;;;;;;;;;5058431;28;20029;-67
2022/06/08 15:09:11;;;;;;;2.45;1.27;;;;;;;;;;5057463;28;20236;-67
2022/06/08 15:14:37;;;;;;;4.63;1.48;;;;;;;;;;5058397;28;20067;-66
2022/06/08 15:17:10;;;;;;;1.73;1.00;;;;;;;;;;5058279;28;20020;-67
2022/06/08 15:19:39;;;;;;;1.52;0.90;;;;;;;;;;5057812;28;20060;-65
2022/06/08 15:22:08;;;;;;;3.80;1.20;;;;;;;;;;5058324;28;20028;-65
2022/06/08 15:24:34;;;;;;;3.25;1.10;;;;;;;;;;5057985;28;20328;-65
2022/06/08 15:27:05;;;;;;;4.65;1.33;;;;;;;;;;5058873;28;20028;-67
2022/06/08 15:29:31;;;;;;;2.20;1.20;;;;;;;;;;5058764;28;20024;-67
2022/06/08 15:31:57;;;;;;;3.58;1.52;;;;;;;;;;5058712;28;20394;-66